Time;durP1;ratioP1;P1;durP2;ratioP2;P2;SDS_P1;SDS_P2;PMS_P1;PMS_P2;Temp;Humidity;BMP_temperature;BMP_pressure;BME280_temperature;BME280_humidity;BME280_pressure;Samples;Min_cycle;Max_cycle;Signal;HPM_P1;HPM_P2
2022/12/12 00:01:32;;;;;;;53.50;21.38;;;-5.10;71.90;;;;;;4212208;28;20555;-82
2022/12/12 00:03:52;;;;;;;58.63;22.65;;;-5.10;71.90;;;;;;4214972;27;20062;-83
2022/12/12 00:06:11;;;;;;;56.00;20.30;;;-5.10;71.90;;;;;;4219664;28;20085;-82
2022/12/12 00:08:31;;;;;;;50.05;20.33;;;-5.10;71.90;;;;;;4216077;27;20063;-83
2022/12/12 00:10:51;;;;;;;47.92;17.92;;;-5.10;72.80;;;;;;4225796;27;20042;-83
2022/12/12 00:13:10;;;;;;;42.85;17.58;;;-5.20;72.00;;;;;;4219595;28;20104;-83
2022/12/12 00:15:29;;;;;;;43.75;17.65;;;-5.10;72.10;;;;;;4215020;28;20120;-82
2022/12/12 00:17:48;;;;;;;42.33;17.42;;;-5.10;72.10;;;;;;4212239;28;20043;-83
2022/12/12 00:20:07;;;;;;;46.88;18.42;;;-5.10;72.10;;;;;;4214145;27;20061;-82
2022/12/12 00:22:26;;;;;;;42.38;17.77;;;-5.10;72.10;;;;;;4215025;28;20704;-83
2022/12/12 00:24:45;;;;;;;48.88;18.55;;;-5.10;72.10;;;;;;4213626;28;20046;-83
2022/12/12 00:27:05;;;;;;;51.20;19.77;;;-5.10;72.10;;;;;;4218442;28;20109;-84
2022/12/12 00:29:24;;;;;;;48.38;20.05;;;-5.10;72.00;;;;;;4219581;28;20058;-82
2022/12/12 00:31:43;;;;;;;46.30;18.65;;;-5.20;72.00;;;;;;4217392;28;20039;-83
2022/12/12 00:33:56;;;;;;;53.73;20.70;;;-5.20;71.90;;;;;;4212558;28;20088;-82
2022/12/12 00:36:23;;;;;;;51.72;19.48;;;-5.20;71.90;;;;;;4217235;28;20669;-82
2022/12/12 00:38:29;;;;;;;50.78;20.25;;;-5.20;71.90;;;;;;4216546;28;20116;-83
2022/12/12 00:40:32;;;;;;;47.95;19.98;;;-5.20;71.80;;;;;;4216161;27;20051;-82
2022/12/12 00:42:32;;;;;;;48.03;19.90;;;-5.20;71.80;;;;;;4210670;28;20048;-83
2022/12/12 00:44:33;;;;;;;45.67;19.13;;;-5.20;71.90;;;;;;4215738;28;20039;-83
2022/12/12 00:46:34;;;;;;;52.90;21.02;;;-5.20;71.90;;;;;;4201892;28;20036;-83
2022/12/12 00:48:36;;;;;;;49.33;19.48;;;-5.30;71.80;;;;;;4213791;28;21883;-83
2022/12/12 00:50:37;;;;;;;47.45;19.48;;;-5.30;71.80;;;;;;4216315;28;20317;-83
2022/12/12 00:52:41;;;;;;;52.90;20.27;;;-5.30;71.80;;;;;;4212551;28;20035;-83
2022/12/12 00:54:44;;;;;;;51.58;19.55;;;-5.30;71.90;;;;;;4211459;28;20027;-82
2022/12/12 00:56:44;;;;;;;49.80;20.00;;;-5.30;72.00;;;;;;4213996;27;20035;-83
2022/12/12 00:58:47;;;;;;;45.60;18.83;;;-5.30;72.00;;;;;;4226421;28;20046;-82
2022/12/12 01:01:10;;;;;;;50.38;19.75;;;-5.30;72.10;;;;;;4213076;28;20042;-82
2022/12/12 01:03:37;;;;;;;47.78;18.73;;;-5.30;72.10;;;;;;4215245;28;20027;-83
2022/12/12 01:05:58;;;;;;;46.60;18.55;;;-5.30;72.10;;;;;;4214500;28;20978;-83
2022/12/12 01:08:19;;;;;;;47.63;18.05;;;-5.40;72.10;;;;;;4212965;28;20032;-82
2022/12/12 01:10:40;;;;;;;43.67;17.27;;;-5.30;72.20;;;;;;4196434;28;20029;-83
2022/12/12 01:13:01;;;;;;;45.08;17.73;;;-5.30;72.20;;;;;;4211901;28;20023;-82
2022/12/12 01:15:21;;;;;;;42.42;17.48;;;-5.30;72.20;;;;;;4209785;28;20091;-83
2022/12/12 01:17:42;;;;;;;45.60;18.02;;;-5.30;72.20;;;;;;4214957;28;20058;-84
2022/12/12 01:20:15;;;;;;;44.58;17.95;;;-5.30;72.30;;;;;;4211348;28;20036;-83
2022/12/12 01:22:36;;;;;;;40.42;16.38;;;-5.30;72.30;;;;;;4211976;27;20056;-83
2022/12/12 01:24:37;;;;;;;43.20;17.35;;;-5.20;72.50;;;;;;4217595;27;20028;-81
2022/12/12 01:26:57;;;;;;;42.70;17.75;;;-5.30;72.50;;;;;;4217811;27;20058;-82
2022/12/12 01:29:18;;;;;;;47.75;17.38;;;-5.30;72.50;;;;;;4220402;28;20023;-83
2022/12/12 01:31:39;;;;;;;39.25;16.05;;;-5.30;72.50;;;;;;4222318;27;20064;-82
2022/12/12 01:33:59;;;;;;;39.28;16.33;;;-5.30;72.50;;;;;;4215721;27;20039;-82
2022/12/12 01:36:22;;;;;;;38.70;16.08;;;-5.30;72.60;;;;;;4217009;27;20031;-82
2022/12/12 01:38:47;;;;;;;38.95;16.15;;;-5.30;72.60;;;;;;4214407;27;20029;-84
2022/12/12 01:41:08;;;;;;;37.55;16.58;;;-5.20;72.70;;;;;;4213139;27;20058;-82
2022/12/12 01:43:29;;;;;;;44.78;16.00;;;-5.20;72.80;;;;;;4214080;27;20028;-81
2022/12/12 01:46:01;;;;;;;37.50;14.77;;;-5.20;72.80;;;;;;4216829;28;20131;-81
2022/12/12 01:48:25;;;;;;;35.20;14.98;;;-5.20;72.80;;;;;;4213223;28;20322;-81
2022/12/12 01:50:46;;;;;;;38.85;15.38;;;-5.10;72.90;;;;;;4213907;28;20048;-82
2022/12/12 01:53:06;;;;;;;41.35;15.70;;;-5.10;72.90;;;;;;4209520;28;20059;-82
2022/12/12 01:55:27;;;;;;;36.10;15.65;;;-5.10;72.90;;;;;;4217217;28;20073;-82
2022/12/12 01:57:53;;;;;;;36.35;15.30;;;-5.10;72.80;;;;;;4211239;28;20610;-81
2022/12/12 02:00:14;;;;;;;37.17;15.18;;;-5.10;72.80;;;;;;4213156;28;20043;-81
2022/12/12 02:02:36;;;;;;;34.80;14.18;;;-5.10;72.70;;;;;;4214124;28;20081;-83
2022/12/12 02:05:01;;;;;;;35.65;15.18;;;-5.10;72.70;;;;;;4211344;28;20569;-82
2022/12/12 02:07:22;;;;;;;39.00;15.32;;;-5.10;72.60;;;;;;4213804;28;20489;-82
2022/12/12 02:09:43;;;;;;;31.65;12.98;;;-5.10;72.60;;;;;;4214260;28;20463;-81
2022/12/12 02:12:04;;;;;;;36.38;14.93;;;-5.10;72.50;;;;;;4220344;28;20511;-82
2022/12/12 02:14:36;;;;;;;33.40;13.88;;;-5.10;72.50;;;;;;4215261;28;20038;-82
2022/12/12 02:17:15;;;;;;;36.50;14.38;;;-5.10;72.50;;;;;;4210633;28;20768;-83
2022/12/12 02:20:19;;;;;;;31.00;12.93;;;-5.20;72.50;;;;;;4214072;27;20036;-83
2022/12/12 02:22:58;;;;;;;33.90;12.80;;;-5.20;72.40;;;;;;4214751;27;20095;-82
2022/12/12 02:25:47;;;;;;;30.40;12.45;;;-5.20;72.50;;;;;;4215269;27;20035;-83
2022/12/12 02:28:23;;;;;;;25.88;11.85;;;-5.20;72.40;;;;;;4213274;27;20437;-84
2022/12/12 02:31:14;;;;;;;27.77;11.35;;;-5.20;72.50;;;;;;4216824;28;20080;-83
2022/12/12 02:33:50;;;;;;;31.23;12.60;;;-5.20;72.40;;;;;;4223235;28;20162;-83
2022/12/12 02:36:27;;;;;;;26.90;12.10;;;-5.30;72.20;;;;;;4211196;28;20020;-82
2022/12/12 02:39:08;;;;;;;32.90;13.27;;;-5.30;72.20;;;;;;4216378;27;20036;-83
2022/12/12 02:41:42;;;;;;;27.00;11.48;;;-5.30;72.20;;;;;;4210558;28;20103;-82
2022/12/12 02:44:21;;;;;;;28.17;10.95;;;-5.40;72.10;;;;;;4213691;28;20499;-82
2022/12/12 02:46:59;;;;;;;28.88;11.90;;;-5.40;72.10;;;;;;4214392;28;20130;-82
2022/12/12 02:49:28;;;;;;;27.02;11.65;;;-5.40;72.20;;;;;;4212407;28;20523;-82
2022/12/12 02:51:51;;;;;;;27.50;11.30;;;-5.40;72.20;;;;;;4208871;28;20035;-81
2022/12/12 02:54:17;;;;;;;29.25;12.02;;;-5.40;72.20;;;;;;4215719;27;20031;-80
2022/12/12 02:56:43;;;;;;;29.27;12.27;;;-5.50;72.00;;;;;;4211498;27;20763;-81
2022/12/12 02:59:03;;;;;;;28.58;11.65;;;-5.50;72.00;;;;;;4211509;27;20113;-81
2022/12/12 03:01:45;;;;;;;29.63;11.57;;;-5.50;72.80;;;;;;4214800;27;20392;-80
2022/12/12 03:10:36;;;;;;;34.40;13.10;;;-5.60;71.80;;;;;;4214502;27;20047;-81
2022/12/12 03:13:30;;;;;;;30.92;11.93;;;-5.70;71.70;;;;;;4181783;28;20094;-82
2022/12/12 03:15:59;;;;;;;31.27;13.38;;;-5.70;71.60;;;;;;4184279;28;20570;-82
2022/12/12 03:18:24;;;;;;;30.67;13.13;;;-5.70;71.60;;;;;;4174919;28;20043;-82
2022/12/12 03:20:58;;;;;;;33.88;13.70;;;-5.80;71.60;;;;;;4169552;28;20128;-81
2022/12/12 03:23:40;;;;;;;33.70;13.90;;;-5.80;71.60;;;;;;4183304;28;20524;-82
2022/12/12 03:26:16;;;;;;;35.90;13.30;;;-5.80;71.70;;;;;;4170687;28;20067;-83
2022/12/12 03:28:42;;;;;;;34.25;13.25;;;-5.90;71.60;;;;;;4170823;28;20075;-82
2022/12/12 03:31:06;;;;;;;32.58;12.93;;;-5.90;71.80;;;;;;4186907;28;20102;-81
2022/12/12 03:33:34;;;;;;;30.55;12.90;;;-5.90;71.80;;;;;;4168818;28;20553;-82
2022/12/12 03:36:01;;;;;;;28.23;12.02;;;-6.00;71.80;;;;;;4182454;28;20071;-82
2022/12/12 03:38:30;;;;;;;36.22;14.85;;;-6.00;71.90;;;;;;4183204;28;20063;-82
2022/12/12 03:40:57;;;;;;;35.80;13.45;;;-6.00;72.00;;;;;;4185827;28;20625;-82
2022/12/12 03:43:29;;;;;;;35.08;14.13;;;-6.00;72.00;;;;;;4185784;28;20458;-82
2022/12/12 03:45:58;;;;;;;32.38;13.18;;;-6.00;72.10;;;;;;4184259;28;20059;-82
2022/12/12 03:48:36;;;;;;;32.83;12.90;;;-6.10;72.10;;;;;;4195704;28;20374;-82
2022/12/12 03:51:21;;;;;;;32.17;13.15;;;-6.10;72.20;;;;;;4211742;28;20054;-81
2022/12/12 03:54:10;;;;;;;34.45;13.25;;;-6.10;72.20;;;;;;4213956;28;20453;-82
2022/12/12 03:56:35;;;;;;;36.58;13.77;;;-6.10;72.20;;;;;;4214424;27;20135;-81
2022/12/12 03:59:04;;;;;;;32.40;13.30;;;-6.10;72.20;;;;;;4210288;28;20061;-83
2022/12/12 04:01:34;;;;;;;31.35;12.25;;;-6.10;72.10;;;;;;4212600;28;20059;-84
2022/12/12 04:04:21;;;;;;;30.05;12.82;;;-6.20;72.10;;;;;;4221833;28;20043;-83
2022/12/12 04:06:48;;;;;;;31.77;12.57;;;-6.20;72.10;;;;;;4206225;28;20210;-82
2022/12/12 04:15:01;;;;;;;31.45;11.95;;;-6.20;72.20;;;;;;4222528;27;20075;-82
2022/12/12 04:17:28;;;;;;;32.40;13.35;;;-6.30;72.00;;;;;;4215545;28;20063;-83
2022/12/12 04:25:30;;;;;;;27.48;11.55;;;-6.30;72.10;;;;;;4212920;28;20128;-83
2022/12/12 04:27:53;;;;;;;31.75;12.70;;;-6.30;72.10;;;;;;4211043;28;20035;-83
2022/12/12 04:30:14;;;;;;;38.47;13.40;;;-6.30;72.20;;;;;;4213472;28;20054;-83
2022/12/12 04:32:42;;;;;;;27.70;11.23;;;-6.30;72.30;;;;;;4214198;28;20305;-83
2022/12/12 04:35:15;;;;;;;27.38;11.15;;;-6.40;72.30;;;;;;4214643;28;20092;-84
2022/12/12 04:37:49;;;;;;;28.23;10.57;;;-6.40;72.40;;;;;;4227556;28;20074;-83
2022/12/12 04:40:12;;;;;;;23.92;10.60;;;-6.40;72.50;;;;;;4214667;28;20090;-84
2022/12/12 04:42:37;;;;;;;25.83;10.23;;;-6.40;72.60;;;;;;4212531;28;20527;-84
2022/12/12 04:45:04;;;;;;;26.40;9.85;;;-6.30;72.90;;;;;;4212744;28;20085;-84
2022/12/12 04:47:25;;;;;;;26.42;10.30;;;-6.30;72.90;;;;;;4214238;27;20040;-84
2022/12/12 04:49:48;;;;;;;22.05;9.43;;;-6.30;73.20;;;;;;4209024;28;21624;-84
2022/12/12 04:52:10;;;;;;;21.85;9.65;;;-6.20;73.50;;;;;;4207643;28;20047;-83
2022/12/12 04:54:36;;;;;;;22.08;9.55;;;-6.20;73.70;;;;;;4216857;28;20090;-84
2022/12/12 04:56:59;;;;;;;24.65;10.25;;;-6.20;73.90;;;;;;4215606;28;20123;-84
2022/12/12 04:59:19;;;;;;;19.92;9.38;;;-6.10;74.20;;;;;;4213929;28;20107;-83
2022/12/12 05:01:51;;;;;;;24.08;9.30;;;-6.00;74.50;;;;;;4218525;28;20079;-84
2022/12/12 05:04:19;;;;;;;20.60;9.43;;;-6.00;74.60;;;;;;4212130;28;20031;-84
2022/12/12 05:06:45;;;;;;;22.40;9.75;;;-5.90;74.90;;;;;;4220948;28;20086;-84
2022/12/12 05:09:05;;;;;;;20.67;9.50;;;-5.80;75.10;;;;;;4210625;28;20035;-84
2022/12/12 05:11:24;;;;;;;24.63;10.00;;;-5.70;75.20;;;;;;4211409;28;20848;-86
2022/12/12 05:13:44;;;;;;;20.15;9.25;;;-5.70;75.20;;;;;;4212759;28;20594;-84
2022/12/12 05:16:16;;;;;;;21.77;10.57;;;-5.60;75.20;;;;;;4217573;28;20043;-84
2022/12/12 05:18:35;;;;;;;22.23;9.20;;;-5.50;75.60;;;;;;4217483;28;20102;-83
2022/12/12 05:20:54;;;;;;;19.95;9.40;;;-5.40;75.90;;;;;;4212622;28;20047;-84
2022/12/12 05:23:13;;;;;;;26.48;10.85;;;-5.30;76.00;;;;;;4218447;28;20046;-84
2022/12/12 05:25:32;;;;;;;19.77;9.60;;;-5.30;76.10;;;;;;4217279;28;20097;-83
2022/12/12 05:27:51;;;;;;;24.83;10.60;;;-5.10;76.10;;;;;;4217784;28;20030;-83
2022/12/12 05:30:11;;;;;;;24.50;10.35;;;-5.10;76.00;;;;;;4215888;28;20043;-84
2022/12/12 05:32:30;;;;;;;20.65;9.57;;;-5.00;75.90;;;;;;4210234;28;20499;-84
2022/12/12 05:34:49;;;;;;;22.23;9.85;;;-5.00;75.70;;;;;;4207128;28;20112;-85
2022/12/12 05:37:08;;;;;;;24.73;10.43;;;-4.90;75.80;;;;;;4211163;28;20047;-84
2022/12/12 05:39:27;;;;;;;29.27;10.57;;;-4.90;75.70;;;;;;4209784;28;20123;-82
2022/12/12 05:41:46;;;;;;;27.70;9.90;;;-4.80;75.70;;;;;;4209899;28;20124;-82
2022/12/12 05:44:06;;;;;;;26.23;10.93;;;-4.80;75.70;;;;;;4216553;28;20129;-84
2022/12/12 05:46:25;;;;;;;22.63;9.80;;;-4.70;75.80;;;;;;4210240;28;20081;-82
2022/12/12 05:48:49;;;;;;;21.15;9.68;;;-4.70;75.80;;;;;;4223457;28;20394;-81
2022/12/12 05:51:08;;;;;;;25.33;11.38;;;-4.60;75.80;;;;;;4225211;28;20039;-82
2022/12/12 05:53:27;;;;;;;1214.05;707.80;;;-4.60;75.80;;;;;;4219237;28;20035;-82
2022/12/12 05:55:50;;;;;;;227.63;132.55;;;-4.60;75.70;;;;;;4220096;28;21674;-81
2022/12/12 05:58:09;;;;;;;81.82;41.95;;;-4.50;75.80;;;;;;4221239;28;20042;-83
2022/12/12 06:00:29;;;;;;;56.67;26.55;;;-4.50;75.70;;;;;;4220670;28;20039;-81
2022/12/12 06:02:48;;;;;;;35.38;17.98;;;-4.50;75.70;;;;;;4227333;28;20079;-83
2022/12/12 06:05:08;;;;;;;32.53;15.30;;;-4.40;75.80;;;;;;4227784;28;20047;-83
2022/12/12 06:07:27;;;;;;;26.88;12.88;;;-4.40;75.80;;;;;;4224670;28;20809;-83
2022/12/12 06:09:46;;;;;;;30.05;13.20;;;-4.30;75.80;;;;;;4223943;28;20106;-83
2022/12/12 06:12:05;;;;;;;30.38;12.98;;;-4.30;75.80;;;;;;4228267;28;20042;-82
2022/12/12 06:14:25;;;;;;;25.88;11.80;;;-4.30;75.80;;;;;;4227226;28;20062;-84
2022/12/12 06:16:44;;;;;;;28.05;11.98;;;-4.20;75.90;;;;;;4225836;28;20046;-83
2022/12/12 06:19:03;;;;;;;33.17;12.88;;;-4.20;75.90;;;;;;4228748;28;20043;-83
2022/12/12 06:21:23;;;;;;;24.42;11.25;;;-4.10;76.00;;;;;;4229067;28;20035;-82
2022/12/12 06:23:42;;;;;;;29.02;12.25;;;-4.10;76.00;;;;;;4226317;28;20128;-83
2022/12/12 06:26:01;;;;;;;29.25;12.48;;;-4.10;76.00;;;;;;4225553;28;20031;-83
2022/12/12 06:28:20;;;;;;;29.48;11.23;;;-4.00;76.10;;;;;;4224809;28;20065;-83
2022/12/12 06:30:39;;;;;;;28.17;12.18;;;-4.00;76.10;;;;;;4221706;28;20054;-82
2022/12/12 06:32:58;;;;;;;29.15;13.15;;;-4.00;76.10;;;;;;4224372;28;20120;-84
2022/12/12 06:35:17;;;;;;;27.20;12.57;;;-3.90;76.10;;;;;;4227555;27;20042;-84
2022/12/12 06:37:38;;;;;;;27.17;12.20;;;-3.90;76.10;;;;;;4224012;27;20089;-82
2022/12/12 06:39:57;;;;;;;56.15;24.27;;;-3.90;76.10;;;;;;4222394;27;20078;-83
2022/12/12 06:42:16;;;;;;;41.22;18.95;;;-3.80;76.20;;;;;;4220327;28;20030;-82
2022/12/12 06:44:36;;;;;;;30.23;13.63;;;-3.80;76.20;;;;;;4223854;28;20075;-83
2022/12/12 06:46:55;;;;;;;45.60;17.95;;;-3.70;76.20;;;;;;4227505;27;20624;-81
2022/12/12 06:49:14;;;;;;;34.03;15.90;;;-3.70;76.10;;;;;;4224603;28;20234;-83
2022/12/12 06:51:35;;;;;;;40.00;19.00;;;-3.70;76.20;;;;;;4229539;28;20634;-82
2022/12/12 06:53:55;;;;;;;25.23;12.73;;;-3.60;76.20;;;;;;4227730;28;20081;-83
2022/12/12 06:56:16;;;;;;;28.65;12.73;;;-3.60;76.30;;;;;;4228756;28;20664;-82
2022/12/12 06:58:36;;;;;;;30.55;15.52;;;-3.60;76.30;;;;;;4223987;28;20514;-83
2022/12/12 07:00:55;;;;;;;36.50;17.80;;;-3.50;76.40;;;;;;4222544;28;20426;-83
2022/12/12 07:03:14;;;;;;;31.17;15.60;;;-3.50;76.40;;;;;;4226386;28;20211;-83
2022/12/12 07:05:33;;;;;;;30.08;14.13;;;-3.50;76.60;;;;;;4226286;28;20031;-83
2022/12/12 07:07:53;;;;;;;31.23;14.15;;;-3.40;76.70;;;;;;4223163;28;20047;-83
2022/12/12 07:10:12;;;;;;;29.98;13.10;;;-3.40;76.70;;;;;;4225513;28;20114;-84
2022/12/12 07:12:31;;;;;;;27.08;12.02;;;-3.40;76.70;;;;;;4223999;28;20625;-83
2022/12/12 07:14:50;;;;;;;241.02;96.03;;;-3.30;76.70;;;;;;4223246;28;20031;-83
2022/12/12 07:17:09;;;;;;;86.93;38.22;;;-3.30;76.70;;;;;;4221278;28;20082;-84
2022/12/12 07:19:29;;;;;;;82.18;36.35;;;-3.20;76.80;;;;;;4226509;27;20543;-83
2022/12/12 07:21:49;;;;;;;53.58;22.80;;;-3.20;76.90;;;;;;4221963;28;20059;-84
2022/12/12 07:24:08;;;;;;;42.22;19.70;;;-3.20;76.80;;;;;;4221500;28;20546;-84
2022/12/12 07:26:26;;;;;;;37.35;18.27;;;-3.10;76.90;;;;;;4222581;28;20151;-83
2022/12/12 07:28:46;;;;;;;36.53;15.70;;;-3.10;77.00;;;;;;4222856;27;20031;-82
2022/12/12 07:31:07;;;;;;;29.95;14.20;;;-3.10;76.80;;;;;;4230407;28;20050;-83
2022/12/12 07:33:27;;;;;;;28.52;13.30;;;-3.00;76.90;;;;;;4215573;28;20081;-83
2022/12/12 07:35:46;;;;;;;24.13;12.43;;;-3.00;77.00;;;;;;4225906;28;20828;-83
2022/12/12 07:38:05;;;;;;;26.23;12.40;;;-3.00;77.00;;;;;;4222451;28;20105;-83
2022/12/12 07:40:24;;;;;;;22.98;11.25;;;-2.90;77.10;;;;;;4219210;28;20089;-83
2022/12/12 07:42:43;;;;;;;29.65;13.32;;;-2.90;77.00;;;;;;4215973;28;20032;-83
2022/12/12 07:45:03;;;;;;;27.70;12.50;;;-2.90;77.00;;;;;;4224915;28;20043;-83
2022/12/12 07:47:22;;;;;;;25.38;11.77;;;-2.80;77.00;;;;;;4213348;27;20041;-84
2022/12/12 07:49:41;;;;;;;25.15;11.23;;;-2.80;77.10;;;;;;4223114;28;20031;-84
2022/12/12 07:52:00;;;;;;;23.90;11.35;;;-2.80;77.10;;;;;;4220036;28;20036;-83
2022/12/12 07:54:19;;;;;;;25.75;11.23;;;-2.70;77.30;;;;;;4221547;28;20039;-83
2022/12/12 07:56:38;;;;;;;27.73;11.88;;;-2.70;77.30;;;;;;4222962;28;20458;-83
2022/12/12 07:58:57;;;;;;;27.50;12.00;;;-2.70;77.30;;;;;;4218268;28;20112;-83
2022/12/12 08:01:19;;;;;;;25.98;12.70;;;-2.60;77.30;;;;;;4215796;28;20047;-83
2022/12/12 08:03:39;;;;;;;28.38;12.52;;;-2.60;77.30;;;;;;4223081;27;20043;-83
2022/12/12 08:05:58;;;;;;;33.95;12.93;;;-2.50;77.30;;;;;;4217341;28;20053;-84
2022/12/12 08:08:17;;;;;;;28.35;12.20;;;-2.50;77.30;;;;;;4219281;28;20089;-84
2022/12/12 08:10:40;;;;;;;28.92;13.93;;;-2.50;77.30;;;;;;4217019;28;20051;-84
2022/12/12 08:12:59;;;;;;;28.23;13.10;;;-2.40;77.30;;;;;;4215861;27;20086;-84
2022/12/12 08:15:19;;;;;;;25.63;13.02;;;-2.40;77.30;;;;;;4219086;28;20030;-84
2022/12/12 08:17:38;;;;;;;28.42;14.02;;;-2.40;77.30;;;;;;4218555;28;20038;-84
2022/12/12 08:19:57;;;;;;;27.25;13.32;;;-2.40;77.30;;;;;;4218521;28;20478;-83
2022/12/12 08:22:16;;;;;;;51.45;19.40;;;-2.30;77.40;;;;;;4218149;28;20115;-83
2022/12/12 08:24:36;;;;;;;37.65;16.27;;;-2.30;77.30;;;;;;4216349;28;20086;-83
2022/12/12 08:26:55;;;;;;;29.40;13.98;;;-2.30;77.30;;;;;;4218269;28;20077;-83
2022/12/12 08:29:14;;;;;;;25.67;12.10;;;-2.20;77.40;;;;;;4221765;28;20076;-83
2022/12/12 08:31:34;;;;;;;27.67;13.25;;;-2.20;77.50;;;;;;4220753;27;20507;-83
2022/12/12 08:33:53;;;;;;;36.78;13.80;;;-2.20;77.50;;;;;;4216030;28;20305;-83
2022/12/12 08:36:15;;;;;;;34.28;14.43;;;-2.10;77.50;;;;;;4219763;28;20043;-83
2022/12/12 08:38:34;;;;;;;35.85;13.40;;;-2.00;77.60;;;;;;4215082;28;20043;-83
2022/12/12 08:40:53;;;;;;;37.03;14.73;;;-2.10;77.50;;;;;;4218436;28;20572;-83
2022/12/12 08:43:12;;;;;;;39.35;15.75;;;-2.00;77.60;;;;;;4215616;28;20058;-84
2022/12/12 08:45:31;;;;;;;49.03;18.27;;;-2.00;77.60;;;;;;4213795;28;20090;-84
2022/12/12 08:47:51;;;;;;;38.42;14.48;;;-2.00;77.60;;;;;;4217198;27;20546;-83
2022/12/12 08:50:11;;;;;;;36.10;14.90;;;-1.90;77.60;;;;;;4213614;28;20058;-83
2022/12/12 08:52:30;;;;;;;41.05;16.40;;;-1.90;77.70;;;;;;4215915;27;20049;-83
2022/12/12 08:54:49;;;;;;;38.92;16.50;;;-1.80;77.90;;;;;;4213677;28;20131;-83
2022/12/12 08:57:08;;;;;;;41.10;15.95;;;-1.80;77.90;;;;;;4218555;28;20081;-84
2022/12/12 08:59:28;;;;;;;37.85;14.68;;;-1.80;77.90;;;;;;4217855;28;20035;-84
2022/12/12 09:01:47;;;;;;;29.90;12.80;;;-1.70;77.90;;;;;;4215724;28;20043;-84
2022/12/12 09:04:06;;;;;;;27.35;12.70;;;-1.70;77.80;;;;;;4214087;28;20089;-84
2022/12/12 09:06:26;;;;;;;26.67;12.25;;;-1.70;77.80;;;;;;4221455;28;20109;-83
2022/12/12 09:08:45;;;;;;;25.90;11.40;;;-1.70;77.80;;;;;;4228043;27;20193;-84
2022/12/12 09:11:05;;;;;;;23.33;10.85;;;-1.60;77.80;;;;;;4213093;28;20065;-83
2022/12/12 09:13:24;;;;;;;20.60;10.38;;;-1.60;77.80;;;;;;4223194;28;20070;-84
2022/12/12 09:15:44;;;;;;;20.55;10.52;;;-1.50;77.90;;;;;;4215302;28;20438;-84
2022/12/12 09:18:03;;;;;;;19.92;10.02;;;-1.50;77.90;;;;;;4213587;28;20098;-84
2022/12/12 09:20:22;;;;;;;19.45;8.30;;;-1.50;78.00;;;;;;4223452;28;20072;-84
2022/12/12 09:22:42;;;;;;;17.10;9.57;;;-1.40;78.00;;;;;;4206207;28;20577;-84
2022/12/12 09:25:03;;;;;;;15.55;8.35;;;-1.40;78.00;;;;;;4223600;28;20058;-84
2022/12/12 09:27:22;;;;;;;18.60;8.57;;;-1.40;78.10;;;;;;4216068;28;20399;-84
2022/12/12 09:29:41;;;;;;;16.05;7.80;;;-1.30;78.20;;;;;;4213276;28;20071;-85
2022/12/12 09:32:05;;;;;;;18.15;7.82;;;-1.30;78.20;;;;;;4217916;28;20034;-84
2022/12/12 09:34:24;;;;;;;;;;;-1.20;78.30;;;;;;4218852;28;20034;-85
2022/12/12 09:36:43;;;;;;;14.77;7.35;;;-1.20;78.80;;;;;;4220266;28;19914;-84
2022/12/12 09:39:03;;;;;;;17.73;8.38;;;-1.20;78.30;;;;;;4215339;28;20047;-84
2022/12/12 09:41:29;;;;;;;15.05;8.20;;;-1.10;78.20;;;;;;4224854;28;20062;-85
2022/12/12 09:43:57;;;;;;;16.98;8.23;;;-1.10;78.20;;;;;;4220974;27;20088;-83
2022/12/12 09:46:34;;;;;;;15.45;7.60;;;-1.00;78.30;;;;;;4222218;27;20038;-85
2022/12/12 09:49:01;;;;;;;17.50;8.15;;;-1.00;78.30;;;;;;4221151;27;20531;-84
2022/12/12 09:51:20;;;;;;;17.02;8.77;;;-0.90;78.40;;;;;;4220817;28;20770;-84
2022/12/12 09:53:42;;;;;;;19.25;9.60;;;-0.90;78.40;;;;;;4219216;27;20415;-84
2022/12/12 09:56:21;;;;;;;18.48;9.77;;;-0.90;78.40;;;;;;4218224;28;20070;-84
2022/12/12 09:59:10;;;;;;;18.45;8.50;;;-0.80;78.30;;;;;;4215425;27;20083;-84
2022/12/12 10:01:32;;;;;;;16.85;8.43;;;-0.80;78.30;;;;;;4215993;27;20111;-84
2022/12/12 10:04:33;;;;;;;22.75;10.15;;;-0.70;78.30;;;;;;4217950;27;20088;-85
2022/12/12 10:07:07;;;;;;;19.30;9.15;;;-0.70;78.40;;;;;;4175898;28;20062;-84
2022/12/12 10:09:29;;;;;;;22.20;11.02;;;-0.70;78.20;;;;;;4189792;28;20393;-85
2022/12/12 10:11:53;;;;;;;25.48;11.57;;;-0.60;78.30;;;;;;4191032;28;20043;-84
2022/12/12 10:14:14;;;;;;;26.50;11.48;;;-0.60;78.30;;;;;;4187324;28;20101;-84
2022/12/12 10:16:34;;;;;;;23.92;10.75;;;-0.60;78.20;;;;;;4189399;28;20125;-84
2022/12/12 10:19:07;;;;;;;19.58;10.15;;;-0.50;78.30;;;;;;4185858;28;20040;-83
2022/12/12 10:21:31;;;;;;;20.13;9.55;;;-0.50;78.20;;;;;;4175031;28;20916;-84
2022/12/12 10:24:03;;;;;;;20.52;9.48;;;-0.50;78.20;;;;;;4183438;28;20524;-84
2022/12/12 10:26:29;;;;;;;18.58;9.38;;;-0.40;78.20;;;;;;4184134;28;20113;-84
2022/12/12 10:28:59;;;;;;;21.50;10.45;;;-0.40;78.20;;;;;;4175769;28;20141;-85
2022/12/12 10:31:48;;;;;;;26.92;13.80;;;-0.40;78.20;;;;;;4189941;28;20072;-84
2022/12/12 10:34:20;;;;;;;32.92;16.35;;;-0.30;78.30;;;;;;4188086;28;20032;-84
2022/12/12 10:37:00;;;;;;;30.63;13.30;;;-0.30;78.30;;;;;;4184397;28;20078;-84
2022/12/12 10:39:29;;;;;;;27.65;13.20;;;-0.30;78.20;;;;;;4187549;28;20044;-84
2022/12/12 10:42:16;;;;;;;27.25;13.45;;;-0.20;78.20;;;;;;4219419;27;20071;-84
2022/12/12 10:44:58;;;;;;;26.77;13.55;;;-0.20;78.10;;;;;;4215818;28;20050;-84
2022/12/12 10:47:18;;;;;;;22.50;10.25;;;-0.20;78.00;;;;;;4218341;28;20115;-84
2022/12/12 10:49:39;;;;;;;22.23;10.18;;;-0.10;78.00;;;;;;4216680;28;20537;-84
2022/12/12 10:52:02;;;;;;;21.02;10.27;;;-0.10;77.90;;;;;;4217212;27;20043;-84
2022/12/12 10:54:25;;;;;;;18.60;9.70;;;-0.10;77.90;;;;;;4214656;27;20515;-84
2022/12/12 10:57:23;;;;;;;17.23;8.73;;;-0.10;78.00;;;;;;4227490;27;20046;-85
2022/12/12 10:59:44;;;;;;;15.07;7.57;;;0.00;78.20;;;;;;4181211;28;20118;-85
2022/12/12 11:02:12;;;;;;;17.73;9.05;;;0.00;78.00;;;;;;4174786;28;20044;-84
2022/12/12 11:04:31;;;;;;;17.55;8.35;;;0.00;78.10;;;;;;4174403;28;20032;-85
2022/12/12 11:06:52;;;;;;;16.55;8.57;;;0.10;78.00;;;;;;4182302;28;20148;-84
2022/12/12 11:09:18;;;;;;;16.08;7.25;;;0.00;77.90;;;;;;4171043;28;20035;-84
2022/12/12 11:11:38;;;;;;;11.65;6.53;;;0.10;78.00;;;;;;4182850;28;20043;-84
2022/12/12 11:14:00;;;;;;;12.63;7.07;;;0.20;78.00;;;;;;4185647;28;20035;-85
2022/12/12 11:16:27;;;;;;;12.10;6.15;;;0.20;78.00;;;;;;4171021;28;20063;-84
2022/12/12 11:19:05;;;;;;;12.95;6.00;;;0.20;77.90;;;;;;4172724;28;20040;-84
2022/12/12 11:21:26;;;;;;;11.13;6.15;;;0.20;77.90;;;;;;4172005;28;20542;-84
2022/12/12 11:23:54;;;;;;;15.15;6.78;;;0.30;77.80;;;;;;4177638;28;20035;-84
2022/12/12 11:26:16;;;;;;;10.38;5.90;;;0.30;77.50;;;;;;4178935;28;20089;-85
2022/12/12 11:28:37;;;;;;;10.15;5.93;;;0.30;77.40;;;;;;4175087;28;20076;-85
2022/12/12 11:30:58;;;;;;;8.98;5.80;;;0.30;77.40;;;;;;4178511;28;20107;-84
2022/12/12 11:33:31;;;;;;;11.77;5.93;;;0.40;77.40;;;;;;4174621;28;20091;-85
2022/12/12 11:35:55;;;;;;;11.32;5.68;;;0.40;77.40;;;;;;4214833;28;20503;-84
2022/12/12 11:38:25;;;;;;;12.43;5.07;;;0.40;77.30;;;;;;4221854;28;20447;-85
2022/12/12 11:40:47;;;;;;;10.85;5.68;;;0.40;77.20;;;;;;4221089;27;20035;-85
2022/12/12 11:43:29;;;;;;;10.48;6.20;;;0.40;77.00;;;;;;4214041;28;20561;-84
2022/12/12 11:46:00;;;;;;;10.98;5.90;;;0.50;76.70;;;;;;4215940;27;20559;-85
2022/12/12 11:48:53;;;;;;;9.95;5.30;;;0.50;76.50;;;;;;4216389;28;20039;-84
2022/12/12 11:51:33;;;;;;;9.25;5.35;;;0.50;76.30;;;;;;4220625;28;20077;-84
2022/12/12 11:53:52;;;;;;;9.57;5.15;;;0.50;76.30;;;;;;4217877;28;20046;-84
2022/12/12 11:56:37;;;;;;;10.45;5.80;;;0.50;76.30;;;;;;4215671;28;20086;-85
2022/12/12 11:59:21;;;;;;;10.00;6.45;;;0.50;76.20;;;;;;4215818;28;20067;-85
2022/12/12 12:01:56;;;;;;;;;;;0.60;75.90;;;;;;4220575;28;20209;-84
2022/12/12 12:04:49;;;;;;;12.48;6.13;;;0.60;74.90;;;;;;4221131;28;19980;-85
2022/12/12 12:07:29;;;;;;;9.77;5.47;;;0.60;75.30;;;;;;4220448;27;20031;-85
2022/12/12 12:10:07;;;;;;;11.65;6.15;;;0.60;75.40;;;;;;4216118;28;20522;-85
2022/12/12 12:12:54;;;;;;;12.13;6.53;;;0.60;75.50;;;;;;4216269;28;20061;-85
2022/12/12 12:15:49;;;;;;;11.10;5.78;;;0.60;75.40;;;;;;4220484;27;20034;-85
2022/12/12 12:18:17;;;;;;;13.50;6.47;;;0.60;75.50;;;;;;4221483;28;20039;-85
2022/12/12 12:20:51;;;;;;;11.13;5.35;;;0.60;75.50;;;;;;4220622;28;20034;-85
2022/12/12 12:23:45;;;;;;;10.85;5.88;;;0.70;75.60;;;;;;4222904;27;20061;-85
2022/12/12 12:26:12;;;;;;;11.20;4.90;;;0.70;75.50;;;;;;4219170;28;20738;-85
2022/12/12 12:29:11;;;;;;;9.60;5.05;;;0.80;75.50;;;;;;4216791;28;20026;-85
2022/12/12 12:31:39;;;;;;;7.50;4.05;;;0.80;74.90;;;;;;4225608;27;20059;-85
2022/12/12 12:34:16;;;;;;;7.40;4.22;;;0.80;74.90;;;;;;4219022;27;20094;-86